createdAt,value
2023-04-20T00:01:47.597Z,5.47
2023-04-20T00:04:15.293Z,5.30
2023-04-20T00:06:43.935Z,4.50
2023-04-20T00:09:10.948Z,3.22
2023-04-20T00:11:37.257Z,4.32
2023-04-20T00:14:03.934Z,4.75
2023-04-20T00:16:30.378Z,4.10
2023-04-20T00:18:57.486Z,3.93
2023-04-20T00:21:24.282Z,3.87
2023-04-20T00:23:51.036Z,4.03
2023-04-20T00:26:17.607Z,3.50
2023-04-20T00:28:44.045Z,4.30
2023-04-20T00:31:10.468Z,3.70
2023-04-20T00:33:36.919Z,3.83
2023-04-20T00:36:03.343Z,3.92
2023-04-20T00:38:29.662Z,3.83
2023-04-20T00:40:55.972Z,4.17
2023-04-20T00:43:22.412Z,4.33
2023-04-20T00:45:48.813Z,3.67
2023-04-20T00:48:15.392Z,4.20
2023-04-20T00:50:41.841Z,3.65
2023-04-20T00:53:08.361Z,3.53
2023-04-20T00:55:36.491Z,3.27
2023-04-20T00:58:02.871Z,4.47
2023-04-20T01:00:29.437Z,3.80
2023-04-20T01:05:47.058Z,3.50
2023-04-20T01:08:13.353Z,3.53
2023-04-20T01:10:39.706Z,3.80
2023-04-20T01:13:06.001Z,3.63
2023-04-20T01:15:32.379Z,3.20
2023-04-20T01:17:58.720Z,3.67
2023-04-20T01:20:25.159Z,3.60
2023-04-20T01:22:51.898Z,3.87
2023-04-20T01:25:18.522Z,3.93
2023-04-20T01:27:44.897Z,3.13
2023-04-20T01:30:11.786Z,3.27
2023-04-20T01:32:38.308Z,4.20
2023-04-20T01:35:05.786Z,4.40
2023-04-20T01:37:32.118Z,3.80
2023-04-20T01:39:58.517Z,3.33
2023-04-20T01:42:24.955Z,4.40
2023-04-20T01:44:51.307Z,3.37
2023-04-20T01:47:18.651Z,3.90
2023-04-20T01:49:45.289Z,3.43
2023-04-20T01:52:11.630Z,2.90
2023-04-20T01:54:38.201Z,3.80
2023-04-20T01:57:04.535Z,3.83
2023-04-20T01:59:30.907Z,4.10
2023-04-20T02:01:57.333Z,3.33
2023-04-20T02:04:24.466Z,4.17
2023-04-20T02:06:50.764Z,3.50
2023-04-20T02:09:17.344Z,3.60
2023-04-20T02:11:43.860Z,3.60
2023-04-20T02:14:10.149Z,3.30
2023-04-20T02:16:36.580Z,3.67
2023-04-20T02:19:03.065Z,3.53
2023-04-20T02:21:29.365Z,3.67
2023-04-20T02:23:55.660Z,3.60
2023-04-20T02:26:21.998Z,4.33
2023-04-20T02:28:48.304Z,4.07
2023-04-20T02:31:14.653Z,3.70
2023-04-20T02:33:41.066Z,4.33
2023-04-20T02:36:07.512Z,3.40
2023-04-20T02:38:33.982Z,3.87
2023-04-20T02:41:00.566Z,3.43
2023-04-20T02:43:26.877Z,3.93
2023-04-20T02:45:53.223Z,4.20
2023-04-20T02:48:19.546Z,4.07
2023-04-20T02:50:46.160Z,3.83
2023-04-20T02:53:12.440Z,3.43
2023-04-20T02:55:38.759Z,4.00
2023-04-20T02:58:06.013Z,5.47
2023-04-20T03:00:32.306Z,4.07
2023-04-20T03:02:58.715Z,3.57
2023-04-20T03:05:25.102Z,3.63
2023-04-20T03:07:51.398Z,4.33
2023-04-20T03:10:17.687Z,3.80
2023-04-20T03:12:44.085Z,3.87
2023-04-20T03:15:10.476Z,3.70
2023-04-20T03:17:36.909Z,3.30
2023-04-20T03:20:04.811Z,4.03
2023-04-20T03:22:31.130Z,3.23
2023-04-20T03:24:57.445Z,3.30
2023-04-20T03:27:23.742Z,3.60
2023-04-20T03:29:50.601Z,3.47
2023-04-20T03:32:16.894Z,3.57
2023-04-20T03:34:43.334Z,3.27
2023-04-20T03:37:09.699Z,3.97
2023-04-20T03:39:36.003Z,4.33
2023-04-20T03:42:02.372Z,3.90
2023-04-20T03:44:28.671Z,3.93
2023-04-20T03:46:54.952Z,5.03
2023-04-20T03:49:25.119Z,3.63
2023-04-20T03:51:51.701Z,4.57
2023-04-20T03:54:18.035Z,4.60
2023-04-20T03:56:49.533Z,3.87
2023-04-20T03:59:16.040Z,4.07
2023-04-20T04:01:44.043Z,3.67
2023-04-20T04:04:11.026Z,3.87
2023-04-20T04:06:37.581Z,3.80
2023-04-20T04:09:04.024Z,4.47
2023-04-20T04:11:30.435Z,3.67
2023-04-20T04:13:59.701Z,4.10
2023-04-20T04:16:26.103Z,3.80
2023-04-20T04:18:52.439Z,3.87
2023-04-20T04:21:18.853Z,3.83
2023-04-20T04:23:45.403Z,4.63
2023-04-20T04:26:12.246Z,3.90
2023-04-20T04:28:38.617Z,4.20
2023-04-20T04:31:07.689Z,3.77
2023-04-20T04:33:34.651Z,4.00
2023-04-20T04:36:01.498Z,3.83
2023-04-20T04:38:27.876Z,4.20
2023-04-20T04:40:54.200Z,4.00
2023-04-20T04:43:20.533Z,4.37
2023-04-20T04:45:47.255Z,4.03
2023-04-20T04:48:14.113Z,3.73
2023-04-20T04:50:40.890Z,4.73
2023-04-20T04:53:07.849Z,4.13
2023-04-20T04:55:34.519Z,4.00
2023-04-20T04:58:01.647Z,3.73
2023-04-20T05:00:29.267Z,4.70
2023-04-20T05:02:55.710Z,2.80
2023-04-20T05:05:22.502Z,2.60
2023-04-20T05:07:48.947Z,2.67
2023-04-20T05:10:15.374Z,3.30
2023-04-20T05:12:41.800Z,2.47
2023-04-20T05:15:08.442Z,3.60
2023-04-20T05:17:35.139Z,3.43
2023-04-20T05:20:01.601Z,2.63
2023-04-20T05:22:27.895Z,3.13
2023-04-20T05:24:54.179Z,2.80
2023-04-20T05:27:20.881Z,3.17
2023-04-20T05:29:47.202Z,2.77
2023-04-20T05:32:13.473Z,2.63
2023-04-20T05:34:39.764Z,3.20
2023-04-20T05:37:06.279Z,3.37
2023-04-20T05:39:32.643Z,2.30
2023-04-20T05:41:58.986Z,2.77
2023-04-20T05:44:25.277Z,3.13
2023-04-20T05:46:51.686Z,3.63
2023-04-20T05:49:18.146Z,2.47
2023-04-20T05:51:44.642Z,3.53
2023-04-20T05:54:11.089Z,2.43
2023-04-20T05:56:37.400Z,4.10
2023-04-20T05:59:04.508Z,2.70
2023-04-20T06:01:30.794Z,3.70
2023-04-20T06:03:57.390Z,3.10
2023-04-20T06:06:23.823Z,2.10
2023-04-20T06:08:50.951Z,2.53
2023-04-20T06:11:17.273Z,4.13
2023-04-20T06:13:43.586Z,3.33
2023-04-20T06:16:10.981Z,3.30
2023-04-20T06:18:37.565Z,2.50
2023-04-20T06:21:04.304Z,2.60
2023-04-20T06:23:30.621Z,2.80
2023-04-20T06:25:56.926Z,2.23
2023-04-20T06:28:23.222Z,2.60
2023-04-20T06:30:49.583Z,2.57
2023-04-20T06:33:17.474Z,2.63
2023-04-20T06:35:43.996Z,3.67
2023-04-20T06:38:10.295Z,3.58
2023-04-20T06:40:36.736Z,2.87
2023-04-20T06:43:03.056Z,2.40
2023-04-20T06:45:29.351Z,2.00
2023-04-20T06:47:55.817Z,2.90
2023-04-20T06:50:22.307Z,3.03
2023-04-20T06:52:48.607Z,2.70
2023-04-20T06:55:14.981Z,3.10
2023-04-20T06:57:43.707Z,3.28
2023-04-20T07:00:10.773Z,3.00
2023-04-20T07:02:43.945Z,2.33
2023-04-20T07:05:11.102Z,3.25
2023-04-20T07:07:37.609Z,3.07
2023-04-20T07:10:04.007Z,2.67
2023-04-20T07:12:30.759Z,3.23
2023-04-20T07:14:57.085Z,3.20
2023-04-20T07:17:27.193Z,2.53
2023-04-20T07:19:53.543Z,8.30
2023-04-20T07:22:19.843Z,3.20
2023-04-20T07:24:46.247Z,3.37
2023-04-20T07:27:12.544Z,3.97
2023-04-20T07:29:38.830Z,2.90
2023-04-20T07:32:05.433Z,2.83
2023-04-20T07:34:31.852Z,2.40
2023-04-20T07:36:58.152Z,4.63
2023-04-20T07:39:25.476Z,4.77
2023-04-20T07:41:51.787Z,3.17
2023-04-20T07:44:18.080Z,3.00
2023-04-20T07:46:44.399Z,3.20
2023-04-20T07:49:10.702Z,2.70
2023-04-20T07:51:37.001Z,5.33
2023-04-20T07:54:03.391Z,4.15
2023-04-20T07:56:30.275Z,7.40
2023-04-20T07:58:56.585Z,4.57
2023-04-20T08:01:26.333Z,7.13
2023-04-20T08:03:55.028Z,12.60
2023-04-20T08:06:21.875Z,5.97
2023-04-20T08:08:48.181Z,6.40
2023-04-20T08:11:14.577Z,15.73
2023-04-20T08:13:41.288Z,4.15
2023-04-20T08:16:07.776Z,5.03
2023-04-20T08:18:34.177Z,5.28
2023-04-20T08:21:00.569Z,3.53
2023-04-20T08:23:28.048Z,5.10
2023-04-20T08:25:54.921Z,4.50
2023-04-20T08:28:32.978Z,5.28
2023-04-20T08:31:00.728Z,11.90
2023-04-20T08:33:27.528Z,4.72
2023-04-20T08:35:53.958Z,6.05
2023-04-20T08:38:32.891Z,4.68
2023-04-20T08:41:00.048Z,4.60
2023-04-20T08:43:26.323Z,6.22
2023-04-20T08:45:55.203Z,9.10
2023-04-20T08:48:21.814Z,9.60
2023-04-20T08:50:48.372Z,4.40
2023-04-20T08:53:14.688Z,4.53
2023-04-20T08:55:40.964Z,4.47
2023-04-20T08:58:07.264Z,22.15
2023-04-20T09:00:33.669Z,4.72
2023-04-20T09:03:01.968Z,5.63
2023-04-20T09:05:29.785Z,4.60
2023-04-20T09:07:57.448Z,5.57
2023-04-20T09:10:24.351Z,5.63
2023-04-20T09:12:51.886Z,11.13
2023-04-20T09:15:25.108Z,9.20
2023-04-20T09:17:51.431Z,4.30
2023-04-20T09:20:26.732Z,8.75
2023-04-20T09:25:21.177Z,4.75
2023-04-20T09:28:00.628Z,8.50
2023-04-20T09:30:37.252Z,4.60
2023-04-20T09:33:04.042Z,4.20
2023-04-20T09:35:30.925Z,4.40
2023-04-20T09:37:57.213Z,4.75
2023-04-20T09:40:24.837Z,4.22
2023-04-20T09:42:52.573Z,4.28
2023-04-20T09:45:19.034Z,6.90
2023-04-20T09:47:46.001Z,23.50
2023-04-20T09:50:24.581Z,4.72
2023-04-20T09:52:56.293Z,5.35
2023-04-20T09:55:23.680Z,4.63
2023-04-20T09:57:50.508Z,6.53
2023-04-20T10:00:17.082Z,4.88
2023-04-20T10:02:46.436Z,3.58
2023-04-20T10:05:12.913Z,5.35
2023-04-20T10:07:39.261Z,6.88
2023-04-20T10:10:06.410Z,4.65
2023-04-20T10:12:33.194Z,4.45
2023-04-20T10:15:01.228Z,4.53
2023-04-20T10:17:31.576Z,9.70
2023-04-20T10:19:58.728Z,4.20
2023-04-20T10:22:34.737Z,5.18
2023-04-20T10:25:14.794Z,5.18
2023-04-20T10:27:51.903Z,4.63
2023-04-20T10:30:18.445Z,5.57
2023-04-20T10:32:44.895Z,4.65
2023-04-20T10:35:11.395Z,5.45
2023-04-20T10:37:47.399Z,6.05
2023-04-20T10:40:13.820Z,3.95
2023-04-20T10:42:43.753Z,9.43
2023-04-20T10:45:11.139Z,6.10
2023-04-20T10:47:40.495Z,5.32
2023-04-20T10:50:07.959Z,4.32
2023-04-20T10:52:36.047Z,4.53
2023-04-20T10:55:02.815Z,4.85
2023-04-20T10:57:29.245Z,6.72
2023-04-20T10:59:55.684Z,4.68
2023-04-20T11:02:22.074Z,4.65
2023-04-20T11:04:48.586Z,4.30
2023-04-20T11:07:14.896Z,3.55
2023-04-20T11:09:42.936Z,4.82
2023-04-20T11:12:11.968Z,4.97
2023-04-20T11:14:40.103Z,4.75
2023-04-20T11:17:06.576Z,6.60
2023-04-20T11:19:34.051Z,4.88
2023-04-20T11:22:01.134Z,13.60
2023-04-20T11:24:28.358Z,5.55
2023-04-20T11:26:55.196Z,5.63
2023-04-20T11:29:30.555Z,7.10
2023-04-20T11:31:57.456Z,6.43
2023-04-20T11:34:24.227Z,63.05
2023-04-20T11:36:56.296Z,6.43
2023-04-20T11:39:29.733Z,6.97
2023-04-20T11:41:57.231Z,3.70
2023-04-20T11:44:24.440Z,4.10
2023-04-20T11:46:53.155Z,4.22
2023-04-20T11:49:22.646Z,5.18
2023-04-20T11:51:49.184Z,4.75
2023-04-20T11:54:15.570Z,4.50
2023-04-20T11:56:42.595Z,4.75
2023-04-20T11:59:09.101Z,5.97
2023-04-20T12:01:35.843Z,5.10
2023-04-20T12:04:02.642Z,5.22
2023-04-20T12:06:29.616Z,5.57
2023-04-20T12:08:56.366Z,7.95
2023-04-20T12:11:23.046Z,5.43
2023-04-20T12:13:49.590Z,5.05
2023-04-20T12:16:15.993Z,5.90
2023-04-20T12:18:42.882Z,5.97
2023-04-20T12:21:09.172Z,5.38
2023-04-20T12:23:38.612Z,5.63
2023-04-20T12:26:05.397Z,5.03
2023-04-20T12:28:32.126Z,4.90
2023-04-20T12:30:58.579Z,4.32
2023-04-20T12:33:24.957Z,4.90
2023-04-20T12:35:51.325Z,4.75
2023-04-20T12:38:17.635Z,4.20
2023-04-20T12:40:43.944Z,4.53
2023-04-20T12:43:10.510Z,4.43
2023-04-20T12:45:36.806Z,4.60
2023-04-20T12:48:03.279Z,5.20
2023-04-20T12:50:29.717Z,4.85
2023-04-20T12:52:58.238Z,5.05
2023-04-20T12:55:25.490Z,4.18
2023-04-20T12:57:51.880Z,4.70
2023-04-20T13:00:18.450Z,5.30
2023-04-20T13:02:44.827Z,5.30
2023-04-20T13:05:11.189Z,4.75
2023-04-20T13:07:37.499Z,6.30
2023-04-20T13:10:04.018Z,6.07
2023-04-20T13:12:30.329Z,5.72
2023-04-20T13:14:56.642Z,5.22
2023-04-20T13:17:22.998Z,5.10
2023-04-20T13:19:49.795Z,4.82
2023-04-20T13:22:18.768Z,5.43
2023-04-20T13:24:45.519Z,12.93
2023-04-20T13:27:11.938Z,4.95
2023-04-20T13:29:39.120Z,5.65
2023-04-20T13:32:05.677Z,5.50
2023-04-20T13:34:32.042Z,5.22
2023-04-20T13:36:58.468Z,5.43
2023-04-20T13:39:24.846Z,4.65
2023-04-20T13:41:51.157Z,5.55
2023-04-20T13:44:17.770Z,6.80
2023-04-20T13:46:45.493Z,5.53
2023-04-20T13:49:13.365Z,6.30
2023-04-20T13:51:40.400Z,4.70
2023-04-20T13:54:07.447Z,8.52
2023-04-20T13:56:34.231Z,5.30
2023-04-20T13:59:00.714Z,5.53
2023-04-20T14:01:27.119Z,5.25
2023-04-20T14:03:53.742Z,5.90
2023-04-20T14:06:20.361Z,5.57
2023-04-20T14:08:46.647Z,7.20
2023-04-20T14:11:12.947Z,6.30
2023-04-20T14:13:39.343Z,5.07
2023-04-20T14:16:12.086Z,5.88
2023-04-20T14:18:39.124Z,5.28
2023-04-20T14:21:05.493Z,5.53
2023-04-20T14:23:31.811Z,4.75
2023-04-20T14:25:58.488Z,8.15
2023-04-20T14:28:24.856Z,4.53
2023-04-20T14:30:51.410Z,5.28
2023-04-20T14:33:17.723Z,7.72
2023-04-20T14:35:45.825Z,5.63
2023-04-20T14:38:12.357Z,6.15
2023-04-20T14:40:38.745Z,5.68
2023-04-20T14:43:05.055Z,10.45
2023-04-20T14:45:31.370Z,6.63
2023-04-20T14:47:57.806Z,5.80
2023-04-20T14:50:27.273Z,5.63
2023-04-20T14:52:53.976Z,5.93
2023-04-20T14:55:25.666Z,5.95
2023-04-20T14:57:56.261Z,6.10
2023-04-20T15:00:27.727Z,6.13
2023-04-20T15:02:56.401Z,5.22
2023-04-20T15:05:24.114Z,5.40
2023-04-20T15:07:50.894Z,5.47
2023-04-20T15:10:18.432Z,5.03
2023-04-20T15:12:44.814Z,5.03
2023-04-20T15:15:11.221Z,5.68
2023-04-20T15:17:37.566Z,5.05
2023-04-20T15:20:07.306Z,5.88
2023-04-20T15:22:33.620Z,5.55
2023-04-20T15:24:59.920Z,6.15
2023-04-20T15:27:26.218Z,6.55
2023-04-20T15:29:52.582Z,5.63
2023-04-20T15:32:18.950Z,5.70
2023-04-20T15:34:45.295Z,5.65
2023-04-20T15:37:11.584Z,21.92
2023-04-20T15:39:37.884Z,6.50
2023-04-20T15:42:04.265Z,5.95
2023-04-20T15:44:30.775Z,5.25
2023-04-20T15:46:58.280Z,5.32
2023-04-20T15:49:24.635Z,6.00
2023-04-20T15:51:51.067Z,5.90
2023-04-20T15:54:19.639Z,6.45
2023-04-20T15:56:46.219Z,5.72
2023-04-20T15:59:12.510Z,4.68
2023-04-20T16:01:38.914Z,5.65
2023-04-20T16:04:05.556Z,6.10
2023-04-20T16:06:32.044Z,6.05
2023-04-20T16:08:58.377Z,5.43
2023-04-20T16:11:24.800Z,5.72
2023-04-20T16:13:51.129Z,6.30
2023-04-20T16:16:17.550Z,5.57
2023-04-20T16:18:43.909Z,7.28
2023-04-20T16:21:10.796Z,6.45
2023-04-20T16:23:37.127Z,6.63
2023-04-20T16:26:03.750Z,6.55
2023-04-20T16:28:30.488Z,7.53
2023-04-20T16:30:57.475Z,5.93
2023-04-20T16:33:24.071Z,6.85
2023-04-20T16:35:51.118Z,7.25
2023-04-20T16:38:18.538Z,7.30
2023-04-20T16:40:45.043Z,7.72
2023-04-20T16:43:11.323Z,7.45
2023-04-20T16:45:39.000Z,6.78
2023-04-20T16:48:05.483Z,6.35
2023-04-20T16:50:32.208Z,6.85
2023-04-20T16:52:58.769Z,5.32
2023-04-20T16:55:26.078Z,6.80
2023-04-20T16:57:59.586Z,4.72
2023-04-20T17:00:26.959Z,4.95
2023-04-20T17:02:53.701Z,4.07
2023-04-20T17:05:21.132Z,3.95
2023-04-20T17:07:47.924Z,3.90
2023-04-20T17:10:14.355Z,4.35
2023-04-20T17:12:41.682Z,4.30
2023-04-20T17:15:10.238Z,4.28
2023-04-20T17:17:37.122Z,4.57
2023-04-20T17:20:07.038Z,4.03
2023-04-20T17:22:33.957Z,4.07
2023-04-20T17:25:00.295Z,4.45
2023-04-20T17:27:26.629Z,4.57
2023-04-20T17:29:52.928Z,5.10
2023-04-20T17:32:19.252Z,4.40
2023-04-20T17:34:48.249Z,4.32
2023-04-20T17:37:15.232Z,4.88
2023-04-20T17:39:41.542Z,4.38
2023-04-20T17:42:07.912Z,4.20
2023-04-20T17:44:34.293Z,3.80
2023-04-20T17:47:01.582Z,4.07
2023-04-20T17:49:31.020Z,4.65
2023-04-20T17:51:57.396Z,4.25
2023-04-20T17:54:23.743Z,3.88
2023-04-20T17:56:50.311Z,4.30
2023-04-20T17:59:16.633Z,4.75
2023-04-20T18:01:43.013Z,3.35
2023-04-20T18:04:12.028Z,4.25
2023-04-20T18:06:38.561Z,3.78
2023-04-20T18:09:05.053Z,3.53
2023-04-20T18:11:31.396Z,4.32
2023-04-20T18:13:57.711Z,5.78
2023-04-20T18:16:24.071Z,4.35
2023-04-20T18:18:51.720Z,3.47
2023-04-20T18:21:18.062Z,4.55
2023-04-20T18:23:44.366Z,4.60
2023-04-20T18:26:17.101Z,4.43
2023-04-20T18:28:44.291Z,4.32
2023-04-20T18:31:10.863Z,4.57
2023-04-20T18:33:37.372Z,5.53
2023-04-20T18:36:04.020Z,4.55
2023-04-20T18:38:30.695Z,3.30
2023-04-20T18:40:57.124Z,4.93
2023-04-20T18:43:23.460Z,4.22
2023-04-20T18:45:49.792Z,4.45
2023-04-20T18:48:16.222Z,4.97
2023-04-20T18:50:42.529Z,4.53
2023-04-20T18:53:08.829Z,4.40
2023-04-20T18:55:37.716Z,4.40
2023-04-20T18:58:03.998Z,4.85
2023-04-20T19:00:30.523Z,4.35
2023-04-20T19:02:57.576Z,6.25
2023-04-20T19:05:26.197Z,5.75
2023-04-20T19:07:52.561Z,6.43
2023-04-20T19:10:20.314Z,6.15
2023-04-20T19:12:46.608Z,5.45
2023-04-20T19:15:12.953Z,8.40
2023-04-20T19:17:39.407Z,8.32
2023-04-20T19:20:06.160Z,8.48
2023-04-20T19:22:33.458Z,8.68
2023-04-20T19:24:59.739Z,8.88
2023-04-20T19:27:26.760Z,7.13
2023-04-20T19:29:53.076Z,9.30
2023-04-20T19:32:19.475Z,8.55
2023-04-20T19:34:45.839Z,8.65
2023-04-20T19:37:12.264Z,8.68
2023-04-20T19:39:38.633Z,8.57
2023-04-20T19:42:04.964Z,6.28
2023-04-20T19:44:31.342Z,6.78
2023-04-20T19:46:57.653Z,6.93
2023-04-20T19:49:23.966Z,7.40
2023-04-20T19:51:50.348Z,7.05
2023-04-20T19:54:17.465Z,7.05
2023-04-20T19:56:43.824Z,7.57
2023-04-20T19:59:10.302Z,5.93
2023-04-20T20:01:36.684Z,6.45
2023-04-20T20:04:03.253Z,6.07
2023-04-20T20:06:29.728Z,5.95
2023-04-20T20:08:56.584Z,5.40
2023-04-20T20:11:24.139Z,6.10
2023-04-20T20:13:50.718Z,5.72
2023-04-20T20:16:18.265Z,5.93
2023-04-20T20:18:44.970Z,5.50
2023-04-20T20:21:11.337Z,6.30
2023-04-20T20:23:37.640Z,5.22
2023-04-20T20:26:03.954Z,5.88
2023-04-20T20:28:30.561Z,5.75
2023-04-20T20:30:57.042Z,5.18
2023-04-20T20:33:23.408Z,4.65
2023-04-20T20:35:49.743Z,4.97
2023-04-20T20:38:17.786Z,4.82
2023-04-20T20:40:44.516Z,8.05
2023-04-20T20:43:12.809Z,4.80
2023-04-20T20:45:39.101Z,4.93
2023-04-20T20:48:05.648Z,4.70
2023-04-20T20:50:32.017Z,5.82
2023-04-20T20:52:58.305Z,5.43
2023-04-20T20:55:24.738Z,5.53
2023-04-20T20:57:51.385Z,6.18
2023-04-20T21:00:18.414Z,5.75
2023-04-20T21:02:44.935Z,5.80
2023-04-20T21:05:11.460Z,5.88
2023-04-20T21:07:38.398Z,6.65
2023-04-20T21:10:04.902Z,6.95
2023-04-20T21:12:31.336Z,6.60
2023-04-20T21:14:57.825Z,7.35
2023-04-20T21:17:24.161Z,6.57
2023-04-20T21:19:50.572Z,5.80
2023-04-20T21:22:16.932Z,6.80
2023-04-20T21:24:43.260Z,7.47
2023-04-20T21:27:09.908Z,7.60
2023-04-20T21:29:36.228Z,6.75
2023-04-20T21:32:02.770Z,6.88
2023-04-20T21:34:29.192Z,7.05
2023-04-20T21:36:55.522Z,7.18
2023-04-20T21:39:21.849Z,7.60
2023-04-20T21:41:48.177Z,8.25
2023-04-20T21:44:14.490Z,7.43
2023-04-20T21:46:40.891Z,7.97
2023-04-20T21:49:07.252Z,7.90
2023-04-20T21:51:33.911Z,7.38
2023-04-20T21:54:00.307Z,8.73
2023-04-20T21:56:26.602Z,7.50
2023-04-20T21:58:52.912Z,8.27
2023-04-20T22:01:19.246Z,7.60
2023-04-20T22:03:45.969Z,8.70
2023-04-20T22:06:12.392Z,8.18
2023-04-20T22:08:39.910Z,9.63
2023-04-20T22:11:06.907Z,9.30
2023-04-20T22:13:33.375Z,8.93
2023-04-20T22:15:59.713Z,12.40
2023-04-20T22:18:26.067Z,14.57
2023-04-20T22:20:52.440Z,13.40
2023-04-20T22:23:18.803Z,9.02
2023-04-20T22:25:45.142Z,11.13
2023-04-20T22:28:11.497Z,11.85
2023-04-20T22:30:37.812Z,16.25
2023-04-20T22:33:04.230Z,21.95
2023-04-20T22:35:30.694Z,25.70
2023-04-20T22:37:57.106Z,24.95
2023-04-20T22:40:23.561Z,13.35
2023-04-20T22:42:50.755Z,15.95
2023-04-20T22:45:19.666Z,15.98
2023-04-20T22:47:46.859Z,25.50
2023-04-20T22:50:13.325Z,21.23
2023-04-20T22:52:40.075Z,27.90
2023-04-20T22:55:06.936Z,28.50
2023-04-20T22:57:33.310Z,27.00
2023-04-20T22:59:59.660Z,31.02
2023-04-20T23:02:26.893Z,23.85
2023-04-20T23:04:53.329Z,23.70
2023-04-20T23:07:21.177Z,24.33
2023-04-20T23:09:47.916Z,23.30
2023-04-20T23:12:14.286Z,28.17
2023-04-20T23:14:42.687Z,28.55
2023-04-20T23:17:09.090Z,24.02
2023-04-20T23:19:35.365Z,23.98
2023-04-20T23:22:02.319Z,20.98
2023-04-20T23:24:28.801Z,25.85
2023-04-20T23:26:55.281Z,24.75
2023-04-20T23:29:21.710Z,28.15
2023-04-20T23:31:48.086Z,26.48
2023-04-20T23:34:14.397Z,28.27
2023-04-20T23:36:40.943Z,27.17
2023-04-20T23:39:07.485Z,36.92
2023-04-20T23:41:33.818Z,32.20
2023-04-20T23:44:00.408Z,33.35
2023-04-20T23:46:26.807Z,31.27
2023-04-20T23:48:55.289Z,34.40
2023-04-20T23:51:21.592Z,35.60
2023-04-20T23:53:47.870Z,30.45
2023-04-20T23:56:14.184Z,35.25
2023-04-20T23:58:40.477Z,41.87
